Aviation Digital Data Service (ADDS)

Output produced by METARs form (1109 UTC 13 December 2017)
found at http://www.aviationweather.gov/adds/metars/
 
MZBZ 131100Z 00000KT 9999 FEW045 16/15 A3012 Q1020 NOSIG
TAF MZBZ 131100Z 1312/1412 32007KT 9999 FEW022 SCT045